Time;durP1;ratioP1;P1;durP2;ratioP2;P2;SDS_P1;SDS_P2;PMS_P1;PMS_P2;Temp;Humidity;BMP_temperature;BMP_pressure;BME280_temperature;BME280_humidity;BME280_pressure;Samples;Min_cycle;Max_cycle;Signal;HPM_P1;HPM_P2
2024/03/30 00:02:28;;;;;;;1.40;1.30;;;10.40;99.90;;;;;;4825952;29;20181;-89
2024/03/30 00:04:56;;;;;;;1.52;1.40;;;10.40;99.90;;;;;;4825992;29;20217;-89
2024/03/30 00:07:22;;;;;;;1.92;1.73;;;10.40;99.90;;;;;;4826059;29;20178;-89
2024/03/30 00:09:51;;;;;;;2.42;1.60;;;10.40;99.90;;;;;;4826077;29;20190;-89
2024/03/30 00:12:17;;;;;;;1.90;1.30;;;10.40;99.90;;;;;;4825974;29;20179;-89
2024/03/30 00:14:43;;;;;;;1.48;1.20;;;10.30;99.90;;;;;;4828666;29;20224;-89
2024/03/30 00:17:09;;;;;;;2.05;1.55;;;10.30;99.90;;;;;;4828915;29;20178;-89
2024/03/30 00:19:39;;;;;;;2.92;1.95;;;10.40;99.90;;;;;;4828669;29;20242;-89
2024/03/30 00:22:05;;;;;;;1.75;1.58;;;10.40;99.90;;;;;;4828463;29;20181;-89
2024/03/30 00:24:31;;;;;;;2.78;1.73;;;10.40;99.90;;;;;;4828506;29;20314;-89
2024/03/30 00:26:57;;;;;;;3.70;1.60;;;10.40;99.90;;;;;;4828692;29;20268;-89
2024/03/30 00:29:23;;;;;;;2.63;1.83;;;10.40;99.90;;;;;;4828591;29;20639;-89
2024/03/30 00:31:49;;;;;;;1.90;1.42;;;10.40;99.90;;;;;;4828760;29;20181;-90
2024/03/30 00:34:16;;;;;;;1.92;1.35;;;10.30;99.90;;;;;;4828784;29;20185;-88
2024/03/30 00:36:42;;;;;;;2.30;1.90;;;10.40;99.90;;;;;;4828405;29;20380;-89
2024/03/30 00:39:08;;;;;;;2.00;1.52;;;10.40;99.90;;;;;;4828552;29;20227;-88
2024/03/30 00:41:34;;;;;;;2.38;1.60;;;10.30;99.90;;;;;;4828563;29;20533;-89
2024/03/30 00:44:13;;;;;;;2.20;1.60;;;10.40;99.90;;;;;;4825173;29;20238;-88
2024/03/30 00:46:39;;;;;;;3.58;1.58;;;10.40;99.90;;;;;;4825506;29;20276;-88
2024/03/30 00:49:05;;;;;;;3.08;1.65;;;10.30;99.90;;;;;;4825135;29;20221;-89
2024/03/30 00:51:30;;;;;;;2.97;1.83;;;10.30;99.90;;;;;;4825616;29;20185;-89
2024/03/30 00:53:58;;;;;;;2.30;1.60;;;10.30;99.90;;;;;;4825359;29;20185;-88
2024/03/30 00:56:29;;;;;;;1.90;1.40;;;10.30;99.90;;;;;;4826635;29;20257;-89
2024/03/30 00:58:55;;;;;;;1.65;1.42;;;10.30;99.90;;;;;;4825398;29;20186;-89
2024/03/30 01:01:21;;;;;;;2.80;2.45;;;10.30;99.90;;;;;;4825073;29;20205;-89
2024/03/30 01:03:48;;;;;;;4.95;2.72;;;10.30;99.90;;;;;;4826318;29;20202;-88
2024/03/30 01:06:13;;;;;;;2.15;1.50;;;10.20;99.90;;;;;;4825338;29;20257;-89
2024/03/30 01:08:39;;;;;;;1.73;1.30;;;10.30;99.90;;;;;;4826394;29;20182;-88
2024/03/30 01:11:05;;;;;;;1.80;1.35;;;10.30;99.90;;;;;;4826364;29;20178;-89
2024/03/30 01:13:32;;;;;;;2.65;1.30;;;10.20;99.90;;;;;;4827947;29;20280;-89
2024/03/30 01:15:58;;;;;;;1.80;1.42;;;10.10;99.90;;;;;;4827993;29;20684;-89
2024/03/30 01:18:26;;;;;;;2.72;1.30;;;10.10;99.90;;;;;;4828464;29;20213;-89
2024/03/30 01:20:52;;;;;;;3.47;1.20;;;10.20;99.90;;;;;;4828074;29;20189;-89
2024/03/30 01:23:21;;;;;;;1.60;1.27;;;10.20;99.90;;;;;;4828578;29;20742;-88
2024/03/30 01:25:49;;;;;;;4.85;2.22;;;10.20;99.90;;;;;;4828153;29;20193;-89
2024/03/30 01:28:15;;;;;;;2.35;1.80;;;10.20;99.90;;;;;;4828103;29;20230;-88
2024/03/30 01:30:41;;;;;;;2.92;1.20;;;10.10;99.90;;;;;;4827948;29;20189;-89
2024/03/30 01:33:08;;;;;;;2.10;1.38;;;10.10;99.90;;;;;;4828008;29;20177;-89
2024/03/30 01:35:34;;;;;;;1.70;1.15;;;10.00;99.90;;;;;;4827955;29;20232;-88
2024/03/30 01:38:00;;;;;;;2.05;1.50;;;10.10;99.90;;;;;;4827959;29;20189;-89
2024/03/30 01:40:31;;;;;;;3.20;1.52;;;10.00;99.90;;;;;;4844293;29;20496;-87
2024/03/30 01:42:57;;;;;;;5.05;1.70;;;10.00;99.90;;;;;;4836071;29;20249;-89
2024/03/30 01:45:55;;;;;;;3.65;1.70;;;10.00;99.90;;;;;;4844472;29;20217;-89
2024/03/30 01:48:21;;;;;;;2.25;1.63;;;9.90;99.90;;;;;;4827786;29;20177;-89
2024/03/30 01:50:49;;;;;;;1.83;1.35;;;10.00;99.90;;;;;;4828011;29;20274;-90
2024/03/30 01:53:19;;;;;;;2.13;1.58;;;10.00;99.90;;;;;;4843109;29;20185;-90
2024/03/30 01:55:51;;;;;;;2.72;1.50;;;10.00;99.90;;;;;;4828043;29;20185;-89
2024/03/30 01:58:21;;;;;;;3.08;1.60;;;10.00;99.90;;;;;;4843048;29;20204;-88
2024/03/30 02:00:47;;;;;;;4.35;1.50;;;9.90;99.90;;;;;;4846014;29;20181;-90
2024/03/30 02:03:14;;;;;;;1.98;1.33;;;10.00;99.90;;;;;;4846295;29;20188;-89
2024/03/30 02:05:43;;;;;;;2.00;1.67;;;10.00;99.90;;;;;;4830818;29;20193;-89
2024/03/30 02:08:09;;;;;;;2.42;1.60;;;10.00;99.90;;;;;;4846012;29;20264;-89
2024/03/30 02:10:37;;;;;;;1.80;1.60;;;10.00;99.90;;;;;;4831277;29;20245;-89
2024/03/30 02:13:05;;;;;;;2.15;1.60;;;10.00;99.90;;;;;;4839920;29;20200;-89
2024/03/30 02:15:32;;;;;;;2.90;1.88;;;10.00;99.90;;;;;;4830605;29;20185;-89
2024/03/30 02:17:59;;;;;;;2.85;1.85;;;10.00;99.90;;;;;;4830763;29;20170;-89
2024/03/30 02:20:25;;;;;;;5.00;1.80;;;10.00;99.90;;;;;;4814373;29;20202;-89
2024/03/30 02:22:52;;;;;;;2.72;1.65;;;9.90;99.90;;;;;;4843008;29;20271;-88
2024/03/30 02:25:20;;;;;;;2.72;1.50;;;9.90;99.90;;;;;;4828477;29;20226;-89
2024/03/30 02:27:50;;;;;;;2.00;1.52;;;9.80;99.90;;;;;;4828501;29;20260;-90
2024/03/30 02:30:28;;;;;;;3.75;1.60;;;9.80;99.90;;;;;;4811998;29;20190;-89
2024/03/30 02:32:55;;;;;;;2.70;1.80;;;9.80;99.90;;;;;;4828555;29;20182;-89
2024/03/30 02:35:21;;;;;;;2.45;1.70;;;9.90;99.90;;;;;;4827052;29;20229;-89
2024/03/30 02:37:47;;;;;;;2.85;1.33;;;9.90;99.90;;;;;;4812475;29;20190;-89
2024/03/30 02:40:14;;;;;;;2.13;1.60;;;9.90;99.90;;;;;;4827510;29;20246;-89
2024/03/30 02:42:40;;;;;;;2.33;1.58;;;9.90;99.90;;;;;;4827385;29;20182;-89
2024/03/30 02:45:16;;;;;;;2.80;1.77;;;9.80;99.90;;;;;;4827108;29;20257;-89
2024/03/30 02:47:42;;;;;;;1.65;1.50;;;9.80;99.90;;;;;;4828251;29;20170;-88
2024/03/30 02:50:07;;;;;;;2.38;1.30;;;9.80;99.90;;;;;;4827302;29;20225;-89
2024/03/30 02:52:33;;;;;;;3.13;1.35;;;9.70;99.90;;;;;;4827334;29;20202;-89
2024/03/30 02:54:59;;;;;;;2.50;1.52;;;9.70;99.90;;;;;;4811961;29;20637;-89
2024/03/30 02:57:25;;;;;;;2.03;1.52;;;9.70;99.90;;;;;;4827004;29;20182;-89
2024/03/30 02:59:50;;;;;;;1.48;1.33;;;9.60;99.90;;;;;;4826927;29;20266;-89
2024/03/30 03:02:16;;;;;;;2.15;1.45;;;9.70;99.90;;;;;;4841087;29;20189;-89
2024/03/30 03:04:44;;;;;;;2.70;1.33;;;9.60;99.90;;;;;;4829914;29;20217;-89
2024/03/30 03:07:10;;;;;;;2.67;1.60;;;9.60;99.90;;;;;;4830134;29;20217;-88
2024/03/30 03:09:36;;;;;;;2.05;1.52;;;9.60;99.90;;;;;;4829883;29;20196;-88
2024/03/30 03:12:02;;;;;;;2.95;1.60;;;9.60;99.90;;;;;;4829476;29;20185;-89
2024/03/30 03:14:31;;;;;;;3.55;1.75;;;9.60;99.90;;;;;;4829733;29;20186;-89
2024/03/30 03:16:57;;;;;;;3.03;2.17;;;9.60;99.90;;;;;;4830011;29;20648;-89
2024/03/30 03:19:23;;;;;;;2.10;1.90;;;9.60;99.90;;;;;;4829831;29;20189;-89
2024/03/30 03:21:49;;;;;;;3.00;2.00;;;9.50;99.90;;;;;;4829758;29;20184;-89
2024/03/30 03:24:15;;;;;;;2.28;1.80;;;9.50;99.90;;;;;;4829710;29;20249;-89
2024/03/30 03:26:47;;;;;;;2.72;1.75;;;9.50;99.90;;;;;;4829677;29;20576;-89
2024/03/30 03:29:12;;;;;;;4.25;1.83;;;9.50;99.90;;;;;;4829821;29;20181;-89
2024/03/30 03:31:38;;;;;;;2.83;1.85;;;9.50;99.90;;;;;;4829447;29;20201;-88
2024/03/30 03:34:04;;;;;;;3.22;2.15;;;9.50;99.90;;;;;;4844626;29;20185;-88
2024/03/30 03:36:30;;;;;;;2.58;1.83;;;9.50;99.90;;;;;;5251991;23;20253;-87
2024/03/30 03:38:55;;;;;;;2.90;1.90;;;9.50;99.90;;;;;;4843748;29;20288;-87
2024/03/30 03:41:21;;;;;;;3.08;1.80;;;9.50;99.90;;;;;;4844756;29;20276;-87
2024/03/30 03:43:47;;;;;;;2.92;2.20;;;9.50;99.90;;;;;;4844471;29;20253;-88
2024/03/30 03:46:12;;;;;;;2.33;1.88;;;9.50;99.90;;;;;;4844666;29;20189;-87
2024/03/30 03:48:38;;;;;;;2.83;1.80;;;9.40;99.90;;;;;;4845864;29;20174;-87
2024/03/30 03:51:04;;;;;;;2.70;1.75;;;9.40;99.90;;;;;;4859587;29;20182;-85
2024/03/30 03:53:30;;;;;;;3.38;1.80;;;9.40;99.90;;;;;;4845948;29;20181;-86
2024/03/30 03:55:55;;;;;;;2.20;1.80;;;9.30;99.90;;;;;;4844420;29;20296;-87
2024/03/30 03:58:23;;;;;;;3.05;2.10;;;9.40;99.90;;;;;;4844439;29;20185;-87
2024/03/30 04:00:49;;;;;;;2.42;1.83;;;9.40;99.90;;;;;;4844510;29;20260;-87
2024/03/30 04:03:15;;;;;;;2.17;1.90;;;9.40;99.90;;;;;;4844053;29;20277;-87
2024/03/30 04:05:41;;;;;;;2.35;1.80;;;9.40;99.90;;;;;;4844175;29;20185;-87
2024/03/30 04:08:08;;;;;;;3.08;1.73;;;9.30;99.90;;;;;;4844254;29;20231;-86
2024/03/30 04:10:34;;;;;;;3.55;1.70;;;9.40;99.90;;;;;;4844249;29;20181;-87
2024/03/30 04:13:00;;;;;;;2.42;1.88;;;9.30;99.90;;;;;;4844299;29;20196;-87
2024/03/30 04:15:25;;;;;;;3.00;2.13;;;9.30;99.90;;;;;;4844296;29;20186;-87
2024/03/30 04:17:52;;;;;;;3.15;1.70;;;9.30;99.90;;;;;;4844015;29;20193;-86
2024/03/30 04:20:18;;;;;;;2.38;2.03;;;9.30;99.90;;;;;;4844355;29;20177;-89
2024/03/30 04:22:44;;;;;;;2.67;1.60;;;9.30;99.90;;;;;;4843324;29;20200;-88
2024/03/30 04:25:09;;;;;;;2.70;1.90;;;9.30;99.90;;;;;;4843861;29;20217;-89
2024/03/30 04:27:36;;;;;;;2.45;1.92;;;9.30;99.90;;;;;;4845217;29;20185;-90
2024/03/30 04:30:02;;;;;;;3.30;1.77;;;9.30;99.90;;;;;;4863207;29;20192;-88
2024/03/30 04:32:28;;;;;;;2.53;1.95;;;9.30;99.90;;;;;;4847023;29;20305;-90
2024/03/30 04:34:54;;;;;;;2.05;1.80;;;9.30;99.90;;;;;;4846977;29;20602;-87
2024/03/30 04:37:21;;;;;;;2.10;1.90;;;9.30;99.90;;;;;;4846705;29;20243;-87
2024/03/30 04:39:49;;;;;;;2.28;1.85;;;9.30;99.90;;;;;;4847345;29;20176;-89
2024/03/30 04:42:15;;;;;;;2.78;2.30;;;9.30;99.90;;;;;;4846768;29;20605;-89
2024/03/30 04:44:40;;;;;;;3.88;2.00;;;9.20;99.90;;;;;;4846770;29;20219;-89
2024/03/30 04:47:06;;;;;;;2.25;2.05;;;9.20;99.90;;;;;;4846797;29;20187;-89
2024/03/30 04:49:34;;;;;;;2.65;2.10;;;9.20;99.90;;;;;;4846651;29;20188;-87
2024/03/30 04:52:00;;;;;;;2.35;2.10;;;9.20;99.90;;;;;;4846526;29;20179;-88
2024/03/30 04:54:25;;;;;;;3.15;2.17;;;9.20;99.90;;;;;;4846848;29;20271;-88
2024/03/30 04:56:51;;;;;;;2.97;2.10;;;9.20;99.90;;;;;;4846289;29;20522;-88
2024/03/30 04:59:23;;;;;;;2.63;2.13;;;9.30;99.90;;;;;;4846028;29;20181;-88
2024/03/30 05:01:48;;;;;;;4.47;2.22;;;9.30;99.90;;;;;;4863138;29;20177;-86
2024/03/30 05:04:14;;;;;;;3.58;2.35;;;9.20;99.90;;;;;;4846497;29;20688;-88
2024/03/30 05:06:40;;;;;;;3.50;2.47;;;9.20;99.90;;;;;;4846443;29;20526;-88
2024/03/30 05:09:05;;;;;;;2.30;2.10;;;9.20;99.90;;;;;;4846656;29;20209;-87
2024/03/30 05:11:31;;;;;;;6.32;2.70;;;9.30;99.90;;;;;;4846497;29;20211;-88
2024/03/30 05:13:57;;;;;;;3.28;2.63;;;9.20;99.90;;;;;;4846439;29;20223;-88
2024/03/30 05:16:22;;;;;;;3.83;2.90;;;9.20;99.90;;;;;;4846438;29;20200;-88
2024/03/30 05:18:59;;;;;;;3.22;2.75;;;9.20;99.90;;;;;;4846672;29;20181;-88
2024/03/30 05:21:26;;;;;;;3.35;2.92;;;9.20;99.90;;;;;;4846298;29;20275;-88
2024/03/30 05:23:52;;;;;;;4.72;2.90;;;9.20;99.90;;;;;;4846280;29;20267;-88
2024/03/30 05:26:18;;;;;;;4.13;2.83;;;9.20;99.90;;;;;;4847087;29;20284;-88
2024/03/30 05:28:48;;;;;;;3.42;3.10;;;9.30;99.90;;;;;;4846522;29;20299;-88
2024/03/30 05:31:21;;;;;;;5.38;2.95;;;9.30;99.90;;;;;;4846318;29;20185;-87
2024/03/30 05:33:47;;;;;;;3.92;2.83;;;9.30;99.90;;;;;;4846763;29;20181;-86
2024/03/30 05:36:14;;;;;;;2.92;2.63;;;9.30;99.90;;;;;;4849465;29;20300;-87
2024/03/30 05:38:52;;;;;;;4.15;2.97;;;9.30;99.90;;;;;;4849902;29;20181;-87
2024/03/30 05:41:17;;;;;;;7.55;3.30;;;9.30;99.90;;;;;;4849916;29;20172;-87
2024/03/30 05:43:43;;;;;;;2.97;2.50;;;9.30;99.90;;;;;;4849798;29;20231;-88
2024/03/30 05:46:09;;;;;;;4.63;3.00;;;9.30;99.90;;;;;;4850188;29;20200;-87
2024/03/30 05:48:37;;;;;;;3.47;3.00;;;9.30;99.90;;;;;;4849680;29;20191;-87
2024/03/30 05:51:04;;;;;;;4.55;3.30;;;9.40;99.90;;;;;;4865138;29;20184;-86
2024/03/30 05:53:30;;;;;;;3.58;2.92;;;9.40;99.90;;;;;;4849755;29;20192;-86
2024/03/30 05:55:55;;;;;;;4.75;3.17;;;9.40;99.90;;;;;;4849914;29;20667;-87
2024/03/30 05:58:23;;;;;;;3.35;3.00;;;9.50;99.90;;;;;;4849863;29;20271;-88
2024/03/30 06:14:17;;;;;;;3.45;2.95;;;9.40;99.90;;;;;;3671038;29;20267;-89
2024/03/30 06:16:42;;;;;;;5.53;3.40;;;9.50;99.90;;;;;;4846306;29;20193;-87
2024/03/30 06:19:09;;;;;;;4.55;3.55;;;9.50;99.90;;;;;;4830944;29;20241;-88
2024/03/30 06:21:35;;;;;;;3.92;3.53;;;9.50;99.90;;;;;;4847270;29;20178;-87
2024/03/30 06:24:18;;;;;;;4.43;3.28;;;9.60;99.90;;;;;;4830600;29;20224;-88
2024/03/30 06:26:43;;;;;;;5.05;3.42;;;9.60;99.90;;;;;;4830831;29;20219;-88
2024/03/30 06:29:10;;;;;;;4.53;3.47;;;9.60;99.90;;;;;;4830707;29;20222;-88
2024/03/30 06:31:36;;;;;;;4.15;3.40;;;9.60;99.90;;;;;;4830466;29;20517;-88
2024/03/30 06:34:09;;;;;;;5.22;2.88;;;9.60;99.90;;;;;;4830631;29;20181;-87
2024/03/30 06:36:35;;;;;;;4.63;3.50;;;9.70;99.90;;;;;;4847270;29;20181;-88
2024/03/30 06:39:02;;;;;;;4.53;3.67;;;9.70;99.90;;;;;;4842352;29;20550;-88
2024/03/30 06:44:14;;;;;;;6.05;3.58;;;9.80;99.90;;;;;;4864966;29;20211;-88
2024/03/30 06:46:50;;;;;;;7.90;3.80;;;9.80;99.90;;;;;;4847875;29;20169;-88
2024/03/30 06:49:16;;;;;;;6.32;4.50;;;9.80;99.90;;;;;;4848804;29;20176;-89
2024/03/30 06:51:41;;;;;;;4.20;3.80;;;9.90;99.90;;;;;;4848849;29;20518;-87
2024/03/30 06:54:10;;;;;;;7.25;3.85;;;10.00;99.90;;;;;;4848729;29;20629;-86
2024/03/30 06:56:36;;;;;;;4.22;3.70;;;10.00;99.90;;;;;;4848743;29;20181;-87
2024/03/30 06:59:01;;;;;;;5.90;3.97;;;10.10;99.90;;;;;;4848705;29;20625;-88
2024/03/30 07:01:27;;;;;;;5.13;3.60;;;10.10;99.90;;;;;;4847962;29;20275;-87
2024/03/30 07:03:54;;;;;;;4.40;3.95;;;10.20;99.90;;;;;;4848483;29;20227;-88
2024/03/30 07:06:20;;;;;;;4.50;3.47;;;10.30;99.90;;;;;;4848425;29;20177;-87
2024/03/30 07:08:45;;;;;;;4.60;3.47;;;10.40;99.90;;;;;;4838475;29;20190;-88
2024/03/30 07:11:12;;;;;;;4.10;3.30;;;10.40;99.90;;;;;;4830088;29;20181;-90
2024/03/30 07:13:38;;;;;;;6.03;3.85;;;10.50;99.90;;;;;;4829662;29;20192;-89
2024/03/30 07:16:04;;;;;;;5.13;3.83;;;10.50;99.90;;;;;;4829992;29;20197;-89
2024/03/30 07:18:30;;;;;;;7.55;3.60;;;10.60;99.90;;;;;;4829758;29;20272;-91
2024/03/30 07:20:55;;;;;;;4.80;4.10;;;10.60;99.90;;;;;;4853489;29;20268;-88
2024/03/30 07:23:29;;;;;;;5.07;3.58;;;10.70;99.90;;;;;;4858165;29;20188;-89
2024/03/30 07:25:55;;;;;;;5.57;4.18;;;10.80;99.90;;;;;;4850995;29;20188;-89
2024/03/30 07:28:22;;;;;;;5.82;3.40;;;10.90;99.90;;;;;;4858013;29;20585;-91
2024/03/30 07:30:58;;;;;;;3.97;3.55;;;11.00;99.90;;;;;;4847902;29;20192;-88
2024/03/30 07:33:27;;;;;;;5.57;3.85;;;11.10;99.90;;;;;;4853860;29;20703;-88
2024/03/30 07:35:56;;;;;;;5.70;3.58;;;11.20;99.90;;;;;;4848998;29;20203;-90
2024/03/30 07:38:27;;;;;;;7.28;3.45;;;11.30;99.90;;;;;;4847693;29;20582;-90
2024/03/30 07:40:53;;;;;;;4.40;3.50;;;11.40;99.90;;;;;;4847755;29;20180;-88
2024/03/30 07:43:21;;;;;;;5.25;3.60;;;11.50;99.90;;;;;;4847727;29;20279;-90
2024/03/30 07:45:47;;;;;;;4.43;3.40;;;11.60;99.90;;;;;;4847740;29;20267;-90
2024/03/30 07:48:13;;;;;;;4.53;3.55;;;11.70;99.90;;;;;;4864036;29;20207;-90
2024/03/30 07:50:38;;;;;;;4.55;3.38;;;11.80;99.90;;;;;;4864747;29;20185;-89
2024/03/30 07:53:04;;;;;;;5.40;3.80;;;11.80;99.90;;;;;;4865941;29;20187;-90
2024/03/30 07:55:32;;;;;;;4.72;3.25;;;11.90;99.90;;;;;;4882613;29;20180;-91
2024/03/30 07:57:57;;;;;;;5.57;3.50;;;12.00;99.90;;;;;;4882553;29;20172;-89
2024/03/30 08:00:23;;;;;;;3.58;3.17;;;12.00;99.90;;;;;;4866321;29;20184;-90
2024/03/30 08:02:59;;;;;;;5.43;3.20;;;12.10;99.90;;;;;;4865618;29;20183;-90
2024/03/30 08:05:37;;;;;;;4.18;3.25;;;12.20;99.90;;;;;;4851286;29;20216;-89
2024/03/30 08:08:03;;;;;;;4.60;3.25;;;12.40;99.90;;;;;;4842514;29;20632;-89
2024/03/30 08:10:29;;;;;;;5.68;2.83;;;12.60;99.90;;;;;;4853049;29;20559;-88
2024/03/30 08:12:54;;;;;;;3.47;2.90;;;12.70;99.90;;;;;;4864823;29;20213;-88
2024/03/30 08:15:21;;;;;;;5.40;3.13;;;12.90;99.90;;;;;;4865595;29;20243;-88
2024/03/30 08:17:47;;;;;;;4.25;3.10;;;12.90;99.90;;;;;;4855417;29;20195;-88
2024/03/30 08:20:12;;;;;;;5.68;2.97;;;13.10;99.90;;;;;;4863836;29;20184;-88
2024/03/30 08:22:38;;;;;;;4.30;3.05;;;13.10;99.90;;;;;;4859154;29;20533;-88
2024/03/30 08:25:11;;;;;;;3.65;2.75;;;13.20;99.90;;;;;;4862386;29;20387;-88
2024/03/30 08:27:37;;;;;;;3.72;3.28;;;13.10;99.90;;;;;;4864015;29;20181;-89
2024/03/30 08:30:04;;;;;;;3.70;2.92;;;13.10;99.90;;;;;;4864995;29;20190;-89
2024/03/30 08:32:30;;;;;;;3.42;2.90;;;13.20;99.90;;;;;;4862139;29;20187;-89
2024/03/30 08:34:56;;;;;;;3.92;2.78;;;13.40;99.90;;;;;;4847061;29;20189;-89
2024/03/30 08:37:23;;;;;;;4.63;2.55;;;13.50;99.90;;;;;;4846796;29;20177;-90
2024/03/30 08:39:48;;;;;;;7.45;2.85;;;13.70;99.90;;;;;;4847048;29;20252;-88
2024/03/30 08:42:14;;;;;;;6.90;3.20;;;13.80;99.90;;;;;;4846704;29;20181;-88
2024/03/30 08:44:40;;;;;;;4.18;2.63;;;14.00;99.90;;;;;;4846668;29;20303;-89
2024/03/30 08:47:06;;;;;;;4.03;2.65;;;14.10;99.90;;;;;;4846595;29;20192;-90
2024/03/30 08:49:32;;;;;;;3.72;2.67;;;14.20;99.90;;;;;;4863287;29;20180;-89
2024/03/30 08:51:57;;;;;;;3.58;3.05;;;14.30;99.90;;;;;;4846773;29;20267;-89
2024/03/30 08:54:43;;;;;;;4.85;2.75;;;14.30;99.90;;;;;;4846692;29;20223;-89
2024/03/30 08:57:09;;;;;;;5.25;2.60;;;14.30;99.90;;;;;;4828611;29;20224;-90
2024/03/30 08:59:34;;;;;;;4.25;2.90;;;14.40;99.90;;;;;;4843510;29;20309;-90
2024/03/30 09:02:00;;;;;;;7.63;2.85;;;14.40;99.90;;;;;;4843123;29;20237;-90
2024/03/30 09:04:33;;;;;;;5.00;2.40;;;14.40;99.90;;;;;;4843359;29;20213;-90
2024/03/30 09:07:01;;;;;;;3.80;2.65;;;14.50;99.90;;;;;;4843475;29;20181;-89
2024/03/30 09:09:28;;;;;;;5.75;2.95;;;14.50;99.90;;;;;;4861529;29;20195;-91
2024/03/30 09:11:56;;;;;;;5.72;2.40;;;14.70;99.90;;;;;;4852529;29;20191;-91
2024/03/30 09:14:22;;;;;;;5.45;2.25;;;14.90;99.90;;;;;;4852490;29;20660;-90
2024/03/30 09:16:48;;;;;;;4.10;2.30;;;15.10;99.90;;;;;;4852465;29;20196;-90
2024/03/30 09:19:14;;;;;;;5.20;2.33;;;15.30;99.90;;;;;;4852581;29;20212;-90
2024/03/30 09:21:40;;;;;;;6.07;2.53;;;15.40;99.90;;;;;;4852379;29;20700;-89
2024/03/30 09:24:06;;;;;;;4.72;2.53;;;15.50;99.90;;;;;;4852490;29;20248;-90
2024/03/30 09:26:40;;;;;;;3.50;1.90;;;15.60;99.90;;;;;;4852521;29;20196;-90
2024/03/30 09:29:05;;;;;;;4.35;2.38;;;15.70;99.90;;;;;;4852652;29;20263;-90
2024/03/30 09:31:31;;;;;;;4.70;2.20;;;15.80;99.90;;;;;;4852428;29;20332;-89
2024/03/30 09:33:57;;;;;;;8.25;2.42;;;15.90;99.90;;;;;;4868726;29;20176;-90
2024/03/30 09:36:39;;;;;;;7.85;2.70;;;16.10;99.90;;;;;;4852498;29;20189;-90
2024/03/30 09:39:05;;;;;;;4.70;2.20;;;16.30;99.90;;;;;;4852383;29;20199;-90
2024/03/30 09:41:41;;;;;;;10.52;2.25;;;16.40;99.90;;;;;;4852443;29;20181;-90
2024/03/30 09:44:08;;;;;;;9.48;2.42;;;16.60;99.90;;;;;;4851837;29;20208;-90
2024/03/30 09:46:48;;;;;;;10.57;2.70;;;16.60;99.90;;;;;;4852514;29;20220;-90
2024/03/30 09:49:15;;;;;;;8.80;2.08;;;16.80;99.90;;;;;;4852384;29;20180;-90
2024/03/30 09:51:44;;;;;;;11.20;2.35;;;16.80;99.90;;;;;;4852357;29;20188;-90
2024/03/30 09:54:12;;;;;;;19.88;3.10;;;17.00;99.90;;;;;;4852093;29;20184;-90
2024/03/30 09:57:16;;;;;;;9.27;2.30;;;17.10;99.90;;;;;;4852253;29;20192;-90
2024/03/30 09:59:43;;;;;;;9.68;2.55;;;17.20;99.90;;;;;;4852189;29;20608;-90
2024/03/30 10:02:10;;;;;;;14.13;2.45;;;17.30;99.90;;;;;;4852061;29;20620;-90
2024/03/30 10:04:36;;;;;;;10.80;2.30;;;17.20;99.90;;;;;;4852086;29;20243;-90
2024/03/30 10:07:09;;;;;;;12.98;2.22;;;17.30;99.90;;;;;;4851967;29;20275;-90
2024/03/30 10:09:36;;;;;;;13.38;3.33;;;17.40;99.90;;;;;;4852240;29;20264;-91
2024/03/30 10:12:29;;;;;;;12.13;2.38;;;17.40;99.90;;;;;;4868670;29;20176;-89
2024/03/30 10:15:01;;;;;;;15.40;2.60;;;17.50;99.90;;;;;;4860845;29;20239;-89
2024/03/30 10:17:27;;;;;;;11.85;3.13;;;17.50;99.90;;;;;;4867496;29;20656;-90
2024/03/30 10:19:56;;;;;;;13.80;2.67;;;17.50;99.90;;;;;;4869730;29;20192;-88
2024/03/30 10:22:22;;;;;;;14.02;2.50;;;17.60;99.90;;;;;;4867103;29;20642;-90
2024/03/30 10:24:49;;;;;;;12.13;2.78;;;17.60;99.90;;;;;;4867658;29;20223;-89
2024/03/30 10:27:16;;;;;;;12.98;2.05;;;17.70;99.90;;;;;;4884478;29;20638;-90
2024/03/30 10:29:45;;;;;;;13.73;2.90;;;17.80;99.90;;;;;;4884118;29;20180;-91
2024/03/30 10:32:11;;;;;;;17.88;3.22;;;17.90;99.90;;;;;;4867260;29;20184;-89
2024/03/30 10:34:37;;;;;;;11.70;2.90;;;18.00;99.90;;;;;;4867539;29;20184;-91
2024/03/30 10:37:02;;;;;;;11.93;2.33;;;18.00;99.90;;;;;;4867395;29;20519;-90
2024/03/30 10:39:29;;;;;;;15.40;2.85;;;18.00;99.90;;;;;;4867422;29;20595;-91
2024/03/30 10:41:55;;;;;;;15.77;2.95;;;17.90;99.90;;;;;;4867456;29;20180;-90
2024/03/30 10:44:29;;;;;;;15.05;2.85;;;18.00;99.90;;;;;;4867045;29;20215;-90
2024/03/30 10:46:56;;;;;;;17.98;2.53;;;17.90;99.90;;;;;;4867215;29;20190;-89
2024/03/30 10:49:24;;;;;;;12.35;2.78;;;18.00;99.90;;;;;;4883973;29;20168;-90
2024/03/30 10:51:54;;;;;;;26.58;4.13;;;18.00;99.90;;;;;;4867198;29;20239;-90
2024/03/30 10:54:20;;;;;;;16.02;3.55;;;18.10;99.90;;;;;;4867215;29;20346;-90
2024/03/30 10:56:52;;;;;;;17.10;2.85;;;18.00;99.90;;;;;;4867160;29;20219;-89
2024/03/30 10:59:20;;;;;;;15.85;3.83;;;18.20;99.90;;;;;;4867097;29;20192;-89
2024/03/30 11:01:51;;;;;;;25.10;3.95;;;18.30;99.90;;;;;;4867033;29;20255;-90
2024/03/30 11:04:19;;;;;;;21.80;3.75;;;18.40;99.90;;;;;;4867144;29;20212;-90
2024/03/30 11:06:58;;;;;;;21.25;3.75;;;18.60;99.90;;;;;;4866982;29;20624;-90
2024/03/30 11:09:25;;;;;;;21.48;3.60;;;18.70;99.90;;;;;;4869751;29;20235;-91
2024/03/30 11:11:51;;;;;;;19.52;3.45;;;18.70;99.90;;;;;;4884483;29;20184;-91
2024/03/30 11:14:17;;;;;;;26.50;3.88;;;18.80;99.90;;;;;;4884208;29;20225;-90
2024/03/30 11:16:44;;;;;;;18.63;3.50;;;18.80;99.90;;;;;;4890915;29;20588;-93
2024/03/30 11:19:14;;;;;;;27.73;4.07;;;18.80;99.90;;;;;;4869895;29;20184;-91
2024/03/30 11:21:51;;;;;;;25.77;3.97;;;18.80;99.90;;;;;;4871551;29;20262;-91
2024/03/30 11:24:18;;;;;;;24.42;3.92;;;18.70;99.90;;;;;;4865909;29;20215;-92
2024/03/30 11:26:55;;;;;;;21.10;3.70;;;18.70;99.90;;;;;;4882427;29;20228;-92
2024/03/30 11:29:32;;;;;;;22.83;4.45;;;18.60;99.90;;;;;;4866162;29;20196;-92
2024/03/30 11:32:12;;;;;;;23.92;4.35;;;18.60;99.90;;;;;;4868612;29;20623;-93
2024/03/30 11:34:38;;;;;;;30.65;4.25;;;18.60;99.90;;;;;;4882366;29;20179;-91
2024/03/30 11:37:10;;;;;;;24.08;4.57;;;18.70;99.90;;;;;;4865951;29;20615;-92
2024/03/30 11:39:48;;;;;;;17.70;3.38;;;18.70;99.90;;;;;;4866383;29;20184;-91
2024/03/30 11:42:44;;;;;;;22.48;4.63;;;18.70;99.90;;;;;;4866304;29;20271;-91
2024/03/30 11:45:31;;;;;;;30.40;3.60;;;18.60;99.90;;;;;;4880688;29;20207;-91
2024/03/30 11:48:11;;;;;;;27.23;4.30;;;18.50;99.90;;;;;;4869308;29;20183;-90
2024/03/30 11:50:38;;;;;;;23.90;4.00;;;18.30;99.90;;;;;;4865747;29;20203;-92
2024/03/30 11:53:17;;;;;;;23.80;4.05;;;18.30;99.90;;;;;;4865427;29;20187;-90
2024/03/30 11:55:55;;;;;;;29.73;4.40;;;18.40;99.90;;;;;;4870067;29;20176;-90
2024/03/30 11:58:31;;;;;;;22.23;4.15;;;18.50;99.90;;;;;;4878067;29;20271;-90
2024/03/30 12:00:59;;;;;;;33.00;5.05;;;18.60;99.90;;;;;;4876145;29;20178;-90
2024/03/30 12:03:26;;;;;;;27.75;4.43;;;18.80;99.90;;;;;;4870746;29;20184;-89
2024/03/30 12:05:53;;;;;;;28.10;4.30;;;18.80;99.90;;;;;;4865690;29;20297;-90
2024/03/30 12:08:41;;;;;;;26.42;4.88;;;18.90;99.90;;;;;;4881388;29;20265;-90
2024/03/30 12:11:08;;;;;;;32.08;4.68;;;19.00;99.90;;;;;;4872380;29;20184;-92
2024/03/30 12:13:38;;;;;;;22.27;4.70;;;19.00;99.90;;;;;;4861979;29;20224;-92
2024/03/30 12:16:04;;;;;;;25.40;4.00;;;19.00;99.90;;;;;;4872367;29;20536;-89
2024/03/30 12:18:32;;;;;;;25.73;4.22;;;19.00;99.90;;;;;;4880910;29;20180;-89
2024/03/30 12:20:58;;;;;;;24.83;4.28;;;18.80;99.90;;;;;;4880687;29;20191;-90
2024/03/30 12:23:24;;;;;;;29.10;5.13;;;18.70;99.90;;;;;;4865825;29;20191;-89
2024/03/30 12:25:51;;;;;;;28.33;4.68;;;18.70;99.90;;;;;;4864291;29;20212;-90
2024/03/30 12:28:30;;;;;;;28.85;4.78;;;18.60;99.90;;;;;;4865429;29;20712;-90
2024/03/30 12:30:56;;;;;;;36.17;5.15;;;18.60;99.90;;;;;;4864877;29;20184;-89
2024/03/30 12:33:26;;;;;;;24.67;4.65;;;18.60;99.90;;;;;;4865666;29;20631;-90
2024/03/30 12:35:52;;;;;;;32.88;5.22;;;18.60;99.90;;;;;;4865836;29;20655;-88
2024/03/30 12:38:23;;;;;;;34.03;4.97;;;18.60;99.90;;;;;;4865355;29;20192;-90
2024/03/30 12:40:59;;;;;;;29.83;6.20;;;18.60;99.90;;;;;;4865000;29;20172;-90
2024/03/30 12:43:25;;;;;;;38.38;5.60;;;18.50;99.90;;;;;;4864538;29;20179;-89
2024/03/30 12:45:54;;;;;;;23.52;4.43;;;18.60;99.90;;;;;;4864821;29;20227;-89
2024/03/30 12:48:39;;;;;;;21.95;4.68;;;18.60;99.90;;;;;;4865094;29;20239;-90
2024/03/30 12:51:04;;;;;;;31.20;4.55;;;18.60;99.90;;;;;;4848375;29;20212;-89
2024/03/30 12:53:30;;;;;;;32.88;4.65;;;18.50;99.90;;;;;;4868849;29;20271;-90
2024/03/30 12:55:56;;;;;;;31.00;4.32;;;18.50;99.90;;;;;;4869802;29;20186;-89
2024/03/30 12:58:50;;;;;;;28.50;5.22;;;18.50;99.90;;;;;;4875909;29;20255;-89
2024/03/30 13:01:19;;;;;;;33.03;5.10;;;18.50;99.90;;;;;;4876697;29;20251;-90
2024/03/30 13:03:45;;;;;;;32.83;4.75;;;18.50;99.90;;;;;;4880749;29;20529;-90
2024/03/30 13:06:12;;;;;;;47.92;5.78;;;18.50;99.90;;;;;;4866205;29;20187;-90
2024/03/30 13:08:51;;;;;;;34.45;5.13;;;18.60;99.90;;;;;;4880101;29;20176;-90
2024/03/30 13:11:21;;;;;;;41.60;6.18;;;18.70;99.90;;;;;;4879023;29;20271;-88